• Join FlightAware (Why Join?)
  • Login
  • US Flag 
09:15PM EDT


 

Airport Tracker/Info


-or-


 

Live Flight TrackerFlight Track Log ✈ CTL311 ✈ 18-Oct-2013 ✈ KJAX - KBLF

Flight Track Log - Related Links

Times and Time Zones

All times are in EDT time to prevent confusion due to time zone crossing. See the CTL311 flight status page for this flight to view local times or setup timezone preferences in your user account.

Time Position Orientation Groundspeed Altitude Reporting Facility
EDT Latitude Longitude Course Direction KTS MPH feet Rate Location/Type
08:05PM 30.5069 -81.6703 37° Northeast 119 137 600  Level Jacksonville Center
08:06PM 30.5297 -81.6506 37° Northeast 133 153 1,600 960 Climbing Jacksonville Center
08:07PM 30.5675 -81.6525 357° North 129 148 2,600 540 Climbing Jacksonville Center
08:08PM 30.6069 -81.6494 North 134 154 2,900 720 Climbing Jacksonville Center
08:09PM 30.6531 -81.6467 North 151 174 4,300 900 Climbing Jacksonville Center
08:10PM 30.6925 -81.6389 10° North 151 174 4,800 540 Climbing Jacksonville Center
08:11PM 30.7364 -81.6333 North 151 174 5,400 600 Climbing Jacksonville Center
08:12PM 30.7822 -81.6303 North 151 174 6,000 540 Climbing Jacksonville Center
08:13PM 30.8303 -81.6250 North 156 180 6,500 540 Climbing Jacksonville Center
08:14PM 30.8700 -81.6339 349° North 156 180 7,100 240 Climbing Jacksonville Center
08:15PM 30.9158 -81.6311 North 156 180 7,000 300 Descending Jacksonville Center
08:16PM 30.9575 -81.6306 North 161 185 7,800 960 Climbing Jacksonville Center
08:17PM 30.9911 -81.6250 North 161 185 9,000 480 Climbing Jacksonville Center
08:18PM 31.0453 -81.6194 North 178 205 8,800  Descending Jacksonville Center
08:19PM 31.0972 -81.6042 14° North 166 191 9,000 60 Climbing Jacksonville Center
08:20PM 31.1453 -81.5939 10° North 166 191 9,000  Level Jacksonville Center
08:21PM 31.1889 -81.5811 14° North 171 197 9,000  Level Jacksonville Center
08:22PM 31.2431 -81.5683 11° North 178 205 9,000  Level Jacksonville Center
08:23PM 31.2931 -81.5531 15° North 183 211 9,000  Level Jacksonville Center
08:24PM 31.3408 -81.5378 15° North 183 211 9,000  Level Jacksonville Center
08:25PM 31.3844 -81.5175 22° Northeast 183 211 9,000  Level Jacksonville Center
08:26PM 31.4303 -81.5022 16° North 183 211 9,000  Level Jacksonville Center
08:27PM 31.4864 -81.4819 17° North 183 211 9,000  Level Jacksonville Center
08:28PM 31.5342 -81.4642 18° North 183 211 9,100  Climbing Jacksonville Center
08:29PM 31.5819 -81.4439 20° North 183 211 9,100  Level Jacksonville Center
08:30PM 31.6278 -81.4286 16° North 183 211 9,100  Level Jacksonville Center
08:31PM 31.6817 -81.4058 20° North 183 211 9,100  Level Jacksonville Center
08:32PM 31.7317 -81.3856 19° North 183 211 9,100  Level Jacksonville Center
08:33PM 31.7772 -81.3628 23° Northeast 183 211 9,100  Level Jacksonville Center
08:35PM 31.8211 -81.3137 44° Northeast  Level FlightAware Approximate
08:42PM 32.1711 -81.1833 North  Level FlightAware Approximate
08:43PM 32.2230 -81.1833 360° North  Level FlightAware Approximate
08:44PM 32.2749 -81.1833 360° North  Level FlightAware Approximate
08:45PM 32.3268 -81.1833 360° North  Level FlightAware Approximate
08:46PM 32.3787 -81.1833 360° North  Level FlightAware Approximate
08:46PM 32.4172 -81.2781 359° North 177 204 9,100  Level Jacksonville Center
08:47PM 32.4306 -81.1833 360° North  Level FlightAware Approximate
08:47PM 32.4631 -81.2750 North 177 204 9,000  Level Jacksonville Center
08:48PM 32.4825 -81.1833 360° North  Level FlightAware Approximate
08:48PM 32.5131 -81.2739 North 182 209 9,000  Level Jacksonville Center
08:49PM 32.5344 -81.1833 360° North  Level FlightAware Approximate
08:49PM 32.5675 -81.2756 359° North 177 204 9,000  Level Jacksonville Center
08:50PM 32.5863 -81.1833 360° North  Level FlightAware Approximate
08:50PM 32.6175 -81.2747 North 177 204 9,000  Level Jacksonville Center
08:51PM 32.6382 -81.1835 359° North  Level FlightAware Approximate
08:51PM 32.6697 -81.2736 North 177 204 9,000  Level Jacksonville Center
08:52PM 32.7197 -81.2678 North 186 214 9,100  Climbing Jacksonville Center
08:53PM 32.7742 -81.2694 359° North 181 208 9,100  Level Jacksonville Center
08:54PM 32.8219 -81.2661 North 176 203 9,100  Level Jacksonville Center
08:55PM 32.8742 -81.2675 359° North 176 203 9,100  Level Jacksonville Center
08:56PM 32.9286 -81.2667 North 176 203 9,100 -60 Level Jacksonville Center
08:57PM 32.9786 -81.2656 North 176 203 9,000 -120 Descending Jacksonville Center
08:58PM 33.0308 -81.2672 358° North 176 203 8,900 -60 Descending Jacksonville Center
08:59PM 33.0831 -81.2686 359° North 181 208 8,900  Level Jacksonville Center
09:00PM 33.1353 -81.2678 North 181 208 9,000  Climbing Jacksonville Center
09:01PM 33.1914 -81.2642 North 181 208 9,000  Level Jacksonville Center
09:02PM 33.2394 -81.2633 North 181 208 9,000  Level Jacksonville Center
09:03PM 33.2936 -81.2625 North 181 208 9,000  Level Jacksonville Center
09:04PM 33.3481 -81.2639 359° North 181 208 9,000  Level Jacksonville Center
09:05PM 33.4003 -81.2628 North 181 208 9,000  Level Jacksonville Center
09:06PM 33.4522 -81.2644 358° North 181 208 9,000  Level Jacksonville Center
09:07PM 33.5067 -81.2611 North 181 208 9,000  Level Jacksonville Center
09:08PM 33.5586 -81.2600 North 181 208 9,000 -180 Level Jacksonville Center
09:10PM 33.6186 -81.2583 North  Level FlightAware Approximate
09:17PM 33.9782 -81.2482 North  Level FlightAware Approximate
09:18PM 34.0296 -81.2467 North  Level FlightAware Approximate
09:19PM 34.0810 -81.2453 North  Level FlightAware Approximate
09:20PM 34.1330 -81.2438 North  Level FlightAware Approximate
09:21PM 34.1850 -81.2423 North  Level FlightAware Approximate
09:22PM 34.2370 -81.2408 North  Level FlightAware Approximate
09:22PM 34.3053 -81.2550 North 182 209 7,000  Level Atlanta Center
09:23PM 34.2890 -81.2394 North  Level FlightAware Approximate
09:23PM 34.3450 -81.2536 North 181 208 7,000  Level Atlanta Center
09:24PM 34.3410 -81.2379 North  Level FlightAware Approximate
09:24PM 34.3950 -81.2494 North 183 211 7,000  Level Atlanta Center
09:25PM 34.3929 -81.2364 North  Level FlightAware Approximate
09:25PM 34.4492 -81.2478 North 184 212 7,000  Level Atlanta Center
09:26PM 34.4449 -81.2349 North  Level FlightAware Approximate
09:26PM 34.4992 -81.2461 North 182 209 7,000  Level Atlanta Center
09:27PM 34.4969 -81.2334 North  Level FlightAware Approximate
09:27PM 34.5494 -81.2494 357° North 181 208 7,000  Level Atlanta Center
09:28PM 34.6014 -81.2453 North 182 209 7,000  Level Atlanta Center
09:29PM 34.6536 -81.2433 North 184 212 7,000  Level Atlanta Center
09:30PM 34.7039 -81.2469 357° North 185 213 7,000  Level Atlanta Center
09:31PM 34.7600 -81.2450 North 184 212 7,000  Level Atlanta Center
09:32PM 34.8103 -81.2458 359° North 182 209 7,000  Level Atlanta Center
09:33PM 34.8664 -81.2414 North 182 209 7,000  Level Atlanta Center
09:34PM 34.9122 -81.2400 North 183 211 7,000  Level Atlanta Center
09:35PM 34.9750 -81.2403 360° North 185 213 7,000  Level Atlanta Center
09:36PM 35.0231 -81.2439 356° North 185 213 7,000  Level Atlanta Center
09:37PM 35.0769 -81.2369 North 184 212 7,000  Level Atlanta Center
09:38PM 35.1231 -81.2378 359° North 182 209 7,000  Level Atlanta Center
09:39PM 35.1753 -81.2386 359° North 179 206 7,000  Level Atlanta Center
09:40PM 35.2253 -81.2394 359° North 180 207 7,000  Level Atlanta Center
09:41PM 35.2753 -81.2353 North 182 209 7,000  Level Atlanta Center
09:42PM 35.3253 -81.2361 359° North 182 209 7,000  Level Atlanta Center
09:43PM 35.3753 -81.2319 North 184 212 7,000  Level Atlanta Center
09:44PM 35.4025 -81.2333 358° North 197 227 7,000  Level Atlanta Center
09:45PM 35.4503 -81.2319 North 192 221 7,000  Level Atlanta Center
09:46PM 35.5047 -81.2325 360° North 184 212 7,000  Level Atlanta Center
09:47PM 35.5547 -81.2308 North 179 206 7,000  Level Atlanta Center
09:48PM 35.6131 -81.2264 North 179 206 7,000  Level Atlanta Center
09:49PM 35.6653 -81.2297 357° North 185 213 7,000  Level Atlanta Center
09:50PM 35.7153 -81.2278 North 185 213 7,000  Level Atlanta Center
09:51PM 35.7633 -81.2289 359° North 185 213 7,000  Level Atlanta Center
09:52PM 35.8153 -81.2269 North 180 207 7,000  Level Atlanta Center
09:53PM 35.8656 -81.2278 359° North 175 201 7,000  Level Atlanta Center
09:54PM 35.9175 -81.2261 North 180 207 7,000  Level Atlanta Center
09:55PM 35.9678 -81.2267 359° North 180 207 7,000  Level Atlanta Center
09:56PM 36.0175 -81.2225 North 175 201 7,000  Level Atlanta Center
09:57PM 36.0697 -81.2233 359° North 180 207 7,000  Level Atlanta Center
09:58PM 36.1261 -81.2239 360° North 180 207 7,100  Climbing Atlanta Center
09:59PM 36.1761 -81.2222 North 180 207 7,100  Level Atlanta Center
10:00PM 36.2261 -81.2203 North 180 207 7,100  Level Atlanta Center
10:01PM 36.2783 -81.2211 359° North 180 207 7,100  Level Atlanta Center
10:02PM 36.3303 -81.2194 North 180 207 7,100  Level Atlanta Center
10:03PM 36.3825 -81.2150 North 180 207 7,100 -60 Level Atlanta Center
10:04PM 36.4325 -81.2183 357° North 180 207 7,000 -60 Descending Atlanta Center
10:05PM 36.4847 -81.2139 North 180 207 7,000  Level Atlanta Center
10:06PM 36.5347 -81.2147 359° North 180 207 7,100  Climbing Atlanta Center
10:07PM 36.5783 -81.2131 North 180 207 7,100 -120 Level Atlanta Center
10:08PM 36.6306 -81.2139 359° North 180 207 6,900 -60 Descending Atlanta Center
10:09PM 36.6806 -81.2147 359° North 180 207 7,000  Climbing Atlanta Center
10:10PM 36.7306 -81.2131 North 180 207 6,900 -60 Descending Atlanta Center
10:11PM 36.7847 -81.2111 North 180 207 6,900  Level Atlanta Center
10:12PM 36.8350 -81.2144 357° North 175 201 6,900  Level Atlanta Center
10:13PM 36.8869 -81.2125 North 175 201 6,900  Level Atlanta Center
10:14PM 36.9369 -81.2133 359° North 175 201 6,900  Level Atlanta Center
10:16PM 37.0350 -81.2108 North 181 208 6,900  Level Indianapolis Center
10:17PM 37.0842 -81.2100 North 181 208 6,900  Level Indianapolis Center